Time;durP1;ratioP1;P1;durP2;ratioP2;P2;SDS_P1;SDS_P2;PMS_P1;PMS_P2;Temp;Humidity;BMP_temperature;BMP_pressure;BME280_temperature;BME280_humidity;BME280_pressure;Samples;Min_cycle;Max_cycle;Signal;HPM_P1;HPM_P2
2023/10/26 00:01:05;;;;;;;0.38;0.38;;;17.60;62.60;;;;;;5150084;27;45383;-74
2023/10/26 00:03:32;;;;;;;0.40;0.40;;;17.60;62.50;;;;;;5150285;27;45268;-74
2023/10/26 00:05:59;;;;;;;0.52;0.50;;;17.60;63.20;;;;;;5150331;27;45396;-75
2023/10/26 00:08:26;;;;;;;0.60;0.60;;;17.60;62.60;;;;;;5150036;27;46350;-74
2023/10/26 00:10:53;;;;;;;0.45;0.45;;;17.60;62.60;;;;;;5148895;27;45305;-74
2023/10/26 00:13:21;;;;;;;0.35;0.35;;;17.60;62.60;;;;;;5149687;27;45359;-74
2023/10/26 00:15:48;;;;;;;0.40;0.40;;;17.60;62.60;;;;;;5150108;27;45183;-74
2023/10/26 00:18:15;;;;;;;0.38;0.38;;;17.50;62.60;;;;;;5149495;27;46390;-74
2023/10/26 00:20:43;;;;;;;0.50;0.47;;;17.50;62.60;;;;;;5149883;27;45272;-74
2023/10/26 00:23:10;;;;;;;0.30;0.30;;;17.50;62.60;;;;;;5149912;27;45292;-74
2023/10/26 00:25:37;;;;;;;0.43;0.35;;;17.50;62.60;;;;;;5133311;27;45398;-75
2023/10/26 00:28:04;;;;;;;0.40;0.40;;;17.50;62.50;;;;;;5128532;27;45263;-74
2023/10/26 00:30:33;;;;;;;0.32;0.32;;;17.50;62.60;;;;;;5128654;27;45331;-74
2023/10/26 00:33:00;;;;;;;0.40;0.40;;;17.50;62.50;;;;;;5128635;27;45249;-75
2023/10/26 00:35:27;;;;;;;0.43;0.43;;;17.50;62.50;;;;;;5128930;27;45159;-74
2023/10/26 00:37:53;;;;;;;1.45;0.40;;;17.50;62.50;;;;;;5144799;27;48283;-74
2023/10/26 00:40:20;;;;;;;0.52;0.50;;;17.50;62.40;;;;;;5149324;27;45257;-74
2023/10/26 00:42:47;;;;;;;0.85;0.50;;;17.50;62.50;;;;;;5149510;27;45349;-75
2023/10/26 00:45:14;;;;;;;0.43;0.35;;;17.50;62.50;;;;;;5149633;27;45261;-75
2023/10/26 00:47:42;;;;;;;0.30;0.30;;;17.50;62.50;;;;;;5149286;27;45233;-75
2023/10/26 00:50:10;;;;;;;0.65;0.40;;;17.50;62.50;;;;;;5149262;27;45227;-75
2023/10/26 00:52:37;;;;;;;0.47;0.47;;;17.40;62.50;;;;;;5149429;27;45350;-75
2023/10/26 00:55:05;;;;;;;0.30;0.30;;;17.40;62.50;;;;;;5148793;27;45433;-74
2023/10/26 00:57:32;;;;;;;0.77;0.40;;;17.40;62.60;;;;;;5148611;27;45508;-74
2023/10/26 00:59:58;;;;;;;0.20;0.20;;;17.50;62.60;;;;;;5149311;27;45183;-74
2023/10/26 01:02:25;;;;;;;0.40;0.40;;;17.50;62.50;;;;;;5146128;27;45254;-74
2023/10/26 01:04:53;;;;;;;0.73;0.50;;;17.50;62.50;;;;;;5128617;27;45290;-74
2023/10/26 01:07:20;;;;;;;0.57;0.57;;;17.50;62.40;;;;;;5128337;27;45484;-74
2023/10/26 01:09:47;;;;;;;0.32;0.30;;;17.40;62.40;;;;;;5128351;27;45144;-75
2023/10/26 01:12:14;;;;;;;0.30;0.30;;;17.50;62.40;;;;;;5128031;27;45256;-75
2023/10/26 01:14:41;;;;;;;0.40;0.40;;;17.40;62.40;;;;;;5128441;27;45486;-75
2023/10/26 01:17:07;;;;;;;0.45;0.45;;;17.40;62.40;;;;;;5128081;27;45413;-75
2023/10/26 01:19:38;;;;;;;0.38;0.38;;;17.40;62.40;;;;;;5128037;27;45380;-74
2023/10/26 01:22:07;;;;;;;0.50;0.40;;;17.40;62.40;;;;;;5128281;27;45230;-75
2023/10/26 01:24:33;;;;;;;0.80;0.45;;;17.40;62.40;;;;;;5128226;27;45454;-75
2023/10/26 01:27:00;;;;;;;0.40;0.40;;;17.40;62.30;;;;;;5126507;27;46602;-75
2023/10/26 01:29:27;;;;;;;0.70;0.60;;;17.40;62.30;;;;;;5128008;27;45172;-74
2023/10/26 01:31:54;;;;;;;0.98;0.40;;;17.40;62.30;;;;;;5128037;27;45234;-74
2023/10/26 01:34:21;;;;;;;0.30;0.22;;;17.40;62.40;;;;;;5127842;27;45216;-75
2023/10/26 01:36:48;;;;;;;0.40;0.30;;;17.40;62.40;;;;;;5134452;27;47344;-75
2023/10/26 01:39:16;;;;;;;0.90;0.32;;;17.40;62.40;;;;;;5147720;27;45357;-74
2023/10/26 01:41:43;;;;;;;0.85;0.38;;;17.40;62.40;;;;;;5148234;27;45229;-74
2023/10/26 01:44:10;;;;;;;0.52;0.32;;;17.40;62.40;;;;;;5148937;27;45290;-74
2023/10/26 01:46:37;;;;;;;0.50;0.50;;;17.40;62.20;;;;;;5148542;27;45463;-75
2023/10/26 01:49:04;;;;;;;0.40;0.40;;;17.40;62.30;;;;;;5148262;27;45247;-75
2023/10/26 01:51:31;;;;;;;0.25;0.25;;;17.40;62.20;;;;;;5148546;27;45244;-74
2023/10/26 01:53:58;;;;;;;0.35;0.32;;;17.40;62.20;;;;;;5148891;27;45253;-75
2023/10/26 01:56:26;;;;;;;0.70;0.38;;;17.40;62.20;;;;;;5148266;27;46366;-75
2023/10/26 01:58:53;;;;;;;0.22;0.22;;;17.40;62.20;;;;;;5148691;27;45525;-75
2023/10/26 02:01:20;;;;;;;0.80;0.30;;;17.30;62.20;;;;;;5148487;27;45241;-75
2023/10/26 02:03:47;;;;;;;0.25;0.25;;;17.40;62.30;;;;;;5133612;27;45398;-74
2023/10/26 02:06:14;;;;;;;0.30;0.30;;;17.30;62.20;;;;;;5126172;27;45677;-75
2023/10/26 02:08:41;;;;;;;0.40;0.40;;;17.40;62.10;;;;;;5127629;27;45276;-74
2023/10/26 02:11:08;;;;;;;0.25;0.25;;;17.40;62.10;;;;;;5127713;27;45322;-75
2023/10/26 02:13:36;;;;;;;0.32;0.32;;;17.40;62.00;;;;;;5127634;27;45355;-75
2023/10/26 02:16:03;;;;;;;0.38;0.38;;;17.40;62.00;;;;;;5127376;27;45126;-75
2023/10/26 02:18:30;;;;;;;0.40;0.40;;;17.40;62.00;;;;;;5126793;27;45219;-74
2023/10/26 02:20:58;;;;;;;0.50;0.30;;;17.40;62.10;;;;;;5128702;27;45313;-74
2023/10/26 02:23:25;;;;;;;0.40;0.40;;;17.40;62.00;;;;;;5130342;27;45261;-74
2023/10/26 02:25:52;;;;;;;0.35;0.35;;;17.30;62.00;;;;;;5130192;27;46465;-74
2023/10/26 02:28:19;;;;;;;0.32;0.30;;;17.40;62.00;;;;;;5130494;27;45155;-74
2023/10/26 02:30:47;;;;;;;0.52;0.50;;;17.30;61.90;;;;;;5130804;27;45277;-74
2023/10/26 02:33:14;;;;;;;0.55;0.38;;;17.40;62.00;;;;;;5130754;27;45342;-75
2023/10/26 02:35:41;;;;;;;0.30;0.30;;;17.30;61.90;;;;;;5130151;27;46671;-74
2023/10/26 02:38:08;;;;;;;0.30;0.30;;;17.30;62.00;;;;;;5148978;27;45203;-75
2023/10/26 02:40:36;;;;;;;0.38;0.38;;;17.40;61.90;;;;;;5141540;27;45295;-74
2023/10/26 02:43:03;;;;;;;0.25;0.25;;;17.40;61.80;;;;;;5130951;27;45282;-75
2023/10/26 02:45:30;;;;;;;0.22;0.22;;;17.40;61.50;;;;;;5130661;27;46555;-75
2023/10/26 02:47:58;;;;;;;0.30;0.30;;;17.40;61.30;;;;;;5130638;27;45232;-73
2023/10/26 02:50:25;;;;;;;0.47;0.45;;;17.40;61.20;;;;;;5130542;27;44725;-74
2023/10/26 02:52:52;;;;;;;0.20;0.20;;;17.50;61.30;;;;;;5130696;27;45459;-74
2023/10/26 02:55:19;;;;;;;0.40;0.40;;;17.50;61.40;;;;;;5130061;27;45387;-74
2023/10/26 02:57:46;;;;;;;0.55;0.50;;;17.40;61.10;;;;;;5129780;27;45375;-75
2023/10/26 03:00:14;;;;;;;0.30;0.30;;;17.50;61.30;;;;;;5130301;27;45181;-75
2023/10/26 03:02:41;;;;;;;0.25;0.25;;;17.50;61.10;;;;;;5130144;27;45600;-75
2023/10/26 03:05:09;;;;;;;0.63;0.32;;;17.50;61.10;;;;;;5130064;27;46271;-74
2023/10/26 03:07:36;;;;;;;0.63;0.40;;;17.50;60.90;;;;;;5126743;27;45497;-74
2023/10/26 03:10:04;;;;;;;0.60;0.30;;;17.50;60.90;;;;;;5130201;27;45160;-75
2023/10/26 03:12:31;;;;;;;0.22;0.22;;;17.50;61.10;;;;;;5130315;27;45237;-75
2023/10/26 03:14:58;;;;;;;0.32;0.30;;;17.50;61.00;;;;;;5129827;27;46693;-74
2023/10/26 03:17:25;;;;;;;0.63;0.40;;;17.50;60.80;;;;;;5130070;27;45302;-75
2023/10/26 03:19:52;;;;;;;0.35;0.35;;;17.50;61.00;;;;;;5130151;27;45335;-75
2023/10/26 03:22:20;;;;;;;0.40;0.30;;;17.50;60.90;;;;;;5130236;27;45267;-75
2023/10/26 03:24:49;;;;;;;0.40;0.30;;;17.50;60.90;;;;;;5129770;27;46411;-75
2023/10/26 03:27:16;;;;;;;0.30;0.30;;;17.50;60.90;;;;;;5129559;27;45301;-75
2023/10/26 03:29:43;;;;;;;1.10;0.40;;;17.50;61.00;;;;;;5130324;27;45267;-75
2023/10/26 03:32:09;;;;;;;0.30;0.30;;;17.40;61.00;;;;;;5128385;27;45518;-75
2023/10/26 03:34:36;;;;;;;0.10;0.10;;;17.40;60.90;;;;;;5129176;27;45498;-75
2023/10/26 03:37:03;;;;;;;0.20;0.20;;;17.40;60.80;;;;;;5138457;27;45336;-75
2023/10/26 03:39:31;;;;;;;0.55;0.35;;;17.50;60.80;;;;;;5149999;27;45304;-74
2023/10/26 03:41:58;;;;;;;0.30;0.30;;;17.50;61.00;;;;;;5129878;27;45426;-75
2023/10/26 03:44:25;;;;;;;0.22;0.22;;;17.40;60.90;;;;;;5129236;27;45445;-75
2023/10/26 03:46:52;;;;;;;0.20;0.20;;;17.50;61.00;;;;;;5129619;27;45336;-75
2023/10/26 03:49:19;;;;;;;0.30;0.30;;;17.40;60.90;;;;;;5129638;27;45279;-74
2023/10/26 03:51:47;;;;;;;0.25;0.25;;;17.50;61.10;;;;;;5129109;27;45268;-75
2023/10/26 03:54:13;;;;;;;0.30;0.30;;;17.40;60.90;;;;;;5129339;27;46277;-75
2023/10/26 03:56:42;;;;;;;0.38;0.20;;;17.40;60.80;;;;;;5129317;27;45176;-74
2023/10/26 03:59:09;;;;;;;0.55;0.32;;;17.40;60.70;;;;;;5129640;27;45333;-75
2023/10/26 04:01:36;;;;;;;0.30;0.30;;;17.50;60.90;;;;;;5129623;27;45427;-75
2023/10/26 04:04:03;;;;;;;0.60;0.40;;;17.40;60.80;;;;;;5129170;27;45648;-75
2023/10/26 04:06:31;;;;;;;0.20;0.20;;;17.40;61.00;;;;;;5128993;27;45196;-75
2023/10/26 04:08:57;;;;;;;0.45;0.32;;;17.40;61.00;;;;;;5129646;27;45380;-76
2023/10/26 04:11:25;;;;;;;1.02;0.40;;;17.40;60.90;;;;;;5129732;27;45434;-75
2023/10/26 04:13:54;;;;;;;0.47;0.20;;;17.40;60.90;;;;;;5129151;27;46465;-75
2023/10/26 04:16:21;;;;;;;0.30;0.30;;;17.40;60.80;;;;;;5129039;27;45206;-75
2023/10/26 04:18:48;;;;;;;0.65;0.40;;;17.40;61.00;;;;;;5116353;27;45251;-75
2023/10/26 04:21:15;;;;;;;0.20;0.20;;;17.40;60.90;;;;;;5119237;27;45422;-75
2023/10/26 04:23:41;;;;;;;0.25;0.25;;;17.40;60.90;;;;;;5128761;27;46213;-75
2023/10/26 04:26:09;;;;;;;0.30;0.30;;;17.40;61.00;;;;;;5129054;27;45180;-74
2023/10/26 04:28:36;;;;;;;0.73;0.30;;;17.40;61.00;;;;;;5129185;27;45250;-75
2023/10/26 04:31:05;;;;;;;0.22;0.22;;;17.40;61.00;;;;;;5129138;27;45201;-74
2023/10/26 04:33:32;;;;;;;0.30;0.30;;;17.40;60.80;;;;;;5128116;27;46409;-75
2023/10/26 04:35:59;;;;;;;0.38;0.17;;;17.40;60.90;;;;;;5134651;27;45359;-75
2023/10/26 04:38:26;;;;;;;0.40;0.40;;;17.40;61.20;;;;;;5149923;27;45138;-74
2023/10/26 04:40:53;;;;;;;0.25;0.13;;;17.40;61.00;;;;;;5149865;27;45391;-74
2023/10/26 04:43:20;;;;;;;0.43;0.30;;;17.40;61.70;;;;;;5148689;27;45455;-74
2023/10/26 04:45:47;;;;;;;0.52;0.40;;;17.40;60.90;;;;;;5149742;27;45319;-74
2023/10/26 04:48:15;;;;;;;0.20;0.20;;;17.40;61.00;;;;;;5149707;27;45161;-74
2023/10/26 04:50:42;;;;;;;0.77;0.22;;;17.40;60.90;;;;;;5149796;27;45185;-74
2023/10/26 04:53:10;;;;;;;0.30;0.30;;;17.40;60.90;;;;;;5149380;27;45489;-74
2023/10/26 04:55:36;;;;;;;0.43;0.20;;;17.40;60.90;;;;;;5149451;27;45401;-74
2023/10/26 04:58:03;;;;;;;0.20;0.20;;;17.40;60.90;;;;;;5149702;27;45287;-74
2023/10/26 05:00:31;;;;;;;0.88;0.30;;;17.40;61.00;;;;;;5149579;27;45286;-75
2023/10/26 05:02:58;;;;;;;0.52;0.40;;;17.40;61.10;;;;;;5149039;27;45457;-74
2023/10/26 05:05:26;;;;;;;0.28;0.28;;;17.40;61.00;;;;;;5149243;27;45284;-74
2023/10/26 05:07:53;;;;;;;0.10;0.10;;;17.40;60.80;;;;;;5149255;27;45339;-75
2023/10/26 05:10:20;;;;;;;0.20;0.20;;;17.40;61.10;;;;;;5149503;27;45167;-74
2023/10/26 05:12:46;;;;;;;0.25;0.25;;;17.40;60.90;;;;;;5149030;27;47425;-74
2023/10/26 05:15:13;;;;;;;0.57;0.50;;;17.40;61.00;;;;;;5149036;27;45342;-75
2023/10/26 05:17:40;;;;;;;0.17;0.17;;;17.40;61.10;;;;;;5145796;27;45314;-74
2023/10/26 05:20:08;;;;;;;0.20;0.20;;;17.40;61.00;;;;;;5127979;27;45395;-75
2023/10/26 05:22:37;;;;;;;0.22;0.22;;;17.40;61.20;;;;;;5128080;27;46564;-74
2023/10/26 05:25:05;;;;;;;0.10;0.10;;;17.30;61.20;;;;;;5128079;27;45413;-74
2023/10/26 05:27:32;;;;;;;0.25;0.22;;;17.40;61.00;;;;;;5128056;27;45237;-74
2023/10/26 05:29:59;;;;;;;0.05;0.05;;;17.40;61.20;;;;;;5128333;27;45387;-74
2023/10/26 05:32:27;;;;;;;0.30;0.30;;;17.30;61.10;;;;;;5127549;27;45262;-74
2023/10/26 05:34:54;;;;;;;0.85;0.30;;;17.40;61.20;;;;;;5127748;27;45426;-74
2023/10/26 05:37:21;;;;;;;0.30;0.30;;;17.40;61.20;;;;;;5146371;27;45288;-74
2023/10/26 05:39:49;;;;;;;0.65;0.20;;;17.30;61.20;;;;;;5149115;27;45424;-75
2023/10/26 05:42:16;;;;;;;0.30;0.28;;;17.40;61.20;;;;;;5147929;27;45295;-74
2023/10/26 05:44:42;;;;;;;0.22;0.20;;;17.30;61.10;;;;;;5148810;27;45268;-74
2023/10/26 05:47:09;;;;;;;0.15;0.10;;;17.30;61.00;;;;;;5148692;27;45271;-74
2023/10/26 05:49:36;;;;;;;0.20;0.20;;;17.40;61.20;;;;;;5148894;27;45420;-74
2023/10/26 05:52:03;;;;;;;0.77;0.32;;;17.30;61.10;;;;;;5148262;27;46666;-74
2023/10/26 05:54:30;;;;;;;1.98;0.28;;;17.40;61.30;;;;;;5148443;27;45175;-75
2023/10/26 05:56:58;;;;;;;0.20;0.20;;;17.40;61.40;;;;;;5132165;27;45305;-75
2023/10/26 05:59:26;;;;;;;0.47;0.30;;;17.40;61.40;;;;;;5131370;27;45296;-71
2023/10/26 06:01:53;;;;;;;0.20;0.20;;;17.30;61.30;;;;;;5130309;27;47044;-71
2023/10/26 06:04:20;;;;;;;0.38;0.35;;;17.30;61.50;;;;;;5130718;27;45146;-69
2023/10/26 06:06:47;;;;;;;0.40;0.40;;;17.40;61.70;;;;;;5131178;27;45236;-71
2023/10/26 06:09:14;;;;;;;0.50;0.30;;;17.40;61.20;;;;;;5131524;27;45443;-75
2023/10/26 06:11:40;;;;;;;0.65;0.45;;;17.30;61.30;;;;;;5130894;27;46659;-69
2023/10/26 06:14:09;;;;;;;0.40;0.40;;;17.30;61.10;;;;;;5130759;27;45304;-71
2023/10/26 06:16:36;;;;;;;0.52;0.47;;;17.40;61.20;;;;;;5131280;27;45361;-73
2023/10/26 06:19:03;;;;;;;0.30;0.30;;;17.40;61.40;;;;;;5131145;27;45432;-73
2023/10/26 06:21:30;;;;;;;0.40;0.38;;;17.40;61.10;;;;;;5130692;27;46728;-73
2023/10/26 06:23:56;;;;;;;0.28;0.28;;;17.40;61.00;;;;;;5130879;27;45308;-72
2023/10/26 06:26:23;;;;;;;0.70;0.30;;;17.40;61.10;;;;;;5131006;27;45354;-72
2023/10/26 06:28:50;;;;;;;0.65;0.50;;;17.40;61.00;;;;;;5130977;27;45450;-71
2023/10/26 06:31:19;;;;;;;0.30;0.30;;;17.40;61.10;;;;;;5130520;27;46669;-71
2023/10/26 06:33:45;;;;;;;0.73;0.35;;;17.40;61.30;;;;;;5130283;27;45370;-73
2023/10/26 06:36:12;;;;;;;0.75;0.30;;;17.40;61.20;;;;;;5138949;27;45449;-71
2023/10/26 06:38:39;;;;;;;0.30;0.30;;;17.40;61.10;;;;;;5151862;27;45256;-74
2023/10/26 06:41:06;;;;;;;0.82;0.77;;;17.40;61.00;;;;;;5151059;27;46896;-72
2023/10/26 06:43:33;;;;;;;0.45;0.45;;;17.40;61.10;;;;;;5151423;27;45257;-72
2023/10/26 06:46:00;;;;;;;0.32;0.32;;;17.40;61.20;;;;;;5150825;27;45276;-70
2023/10/26 06:48:28;;;;;;;0.88;0.35;;;17.40;61.20;;;;;;5150679;27;45541;-72
2023/10/26 06:50:58;;;;;;;0.38;0.30;;;17.40;61.10;;;;;;5150723;27;45671;-68
2023/10/26 06:53:25;;;;;;;0.30;0.30;;;17.40;60.90;;;;;;5151122;27;45365;-72
2023/10/26 06:55:52;;;;;;;0.52;0.40;;;17.50;61.10;;;;;;5141237;27;45233;-71
2023/10/26 06:58:19;;;;;;;0.30;0.30;;;17.40;60.90;;;;;;5130397;27;45183;-71
2023/10/26 07:00:46;;;;;;;0.93;0.40;;;17.40;61.10;;;;;;5124280;27;45545;-70
2023/10/26 07:03:13;;;;;;;0.32;0.30;;;17.40;61.20;;;;;;5129767;27;45271;-72
2023/10/26 07:05:41;;;;;;;0.30;0.30;;;17.40;61.40;;;;;;5130220;27;45413;-74
2023/10/26 07:08:08;;;;;;;0.30;0.20;;;17.50;61.50;;;;;;5130128;27;45306;-74
2023/10/26 07:10:35;;;;;;;0.40;0.40;;;17.40;61.20;;;;;;5130180;27;47998;-74
2023/10/26 07:13:02;;;;;;;0.30;0.30;;;17.50;61.30;;;;;;5130284;27;45291;-74
2023/10/26 07:15:28;;;;;;;0.40;0.40;;;17.50;61.00;;;;;;5130265;27;45233;-74
2023/10/26 07:17:56;;;;;;;0.35;0.35;;;17.50;61.40;;;;;;5130234;27;45518;-74
2023/10/26 07:20:22;;;;;;;0.30;0.30;;;17.50;61.20;;;;;;5129909;27;45631;-74
2023/10/26 07:22:52;;;;;;;0.30;0.30;;;17.50;61.30;;;;;;5129822;27;45302;-75
2023/10/26 07:25:19;;;;;;;0.43;0.20;;;17.50;61.00;;;;;;5129823;27;45328;-74
2023/10/26 07:27:46;;;;;;;0.30;0.30;;;17.50;61.20;;;;;;5130250;27;45438;-74
2023/10/26 07:30:13;;;;;;;0.20;0.20;;;17.50;61.10;;;;;;5129611;27;45287;-75
2023/10/26 07:32:40;;;;;;;0.30;0.30;;;17.50;61.00;;;;;;5128709;27;45284;-75
2023/10/26 07:35:07;;;;;;;1.75;0.57;;;17.50;61.20;;;;;;5129878;27;45200;-74
2023/10/26 07:37:34;;;;;;;3.20;0.63;;;17.50;61.30;;;;;;5149784;27;45286;-75
2023/10/26 07:40:02;;;;;;;1.30;0.45;;;17.50;61.20;;;;;;5150281;27;47273;-75
2023/10/26 07:42:28;;;;;;;0.38;0.32;;;17.50;61.10;;;;;;5150585;27;45330;-75
2023/10/26 07:44:55;;;;;;;0.50;0.43;;;17.50;61.30;;;;;;5150524;27;45310;-73
2023/10/26 07:47:22;;;;;;;0.45;0.45;;;17.50;61.30;;;;;;5151010;27;45397;-75
2023/10/26 07:49:49;;;;;;;0.50;0.50;;;17.50;61.20;;;;;;5150408;27;46670;-74
2023/10/26 07:52:16;;;;;;;1.48;0.40;;;17.50;61.30;;;;;;5150449;27;45305;-75
2023/10/26 07:54:44;;;;;;;0.63;0.60;;;17.50;61.20;;;;;;5134741;27;45532;-75
2023/10/26 07:57:12;;;;;;;1.13;0.70;;;17.50;61.20;;;;;;5132506;27;45410;-74
2023/10/26 07:59:39;;;;;;;2.70;0.60;;;17.50;61.10;;;;;;5149853;27;46426;-74
2023/10/26 08:02:07;;;;;;;0.40;0.40;;;17.50;61.20;;;;;;5150257;27;45335;-74
2023/10/26 08:04:34;;;;;;;1.50;0.60;;;17.50;61.40;;;;;;5150017;27;45287;-75
2023/10/26 08:07:01;;;;;;;0.68;0.68;;;17.50;61.30;;;;;;5150432;27;45371;-75
2023/10/26 08:09:31;;;;;;;0.50;0.50;;;17.50;61.50;;;;;;5149747;27;45316;-75
2023/10/26 08:11:58;;;;;;;0.50;0.50;;;17.60;61.70;;;;;;5149712;27;45311;-73
2023/10/26 08:14:27;;;;;;;1.17;0.80;;;17.50;61.60;;;;;;5149816;27;45378;-74
2023/10/26 08:16:54;;;;;;;5.78;1.15;;;17.60;61.80;;;;;;5149333;27;45446;-71
2023/10/26 08:19:20;;;;;;;4.82;1.05;;;17.60;62.10;;;;;;5148612;27;45383;-71
2023/10/26 08:21:48;;;;;;;11.48;1.38;;;17.60;62.10;;;;;;5150125;27;45622;-71
2023/10/26 08:24:15;;;;;;;5.15;1.20;;;17.60;62.40;;;;;;5149712;27;45251;-72
2023/10/26 08:26:42;;;;;;;3.55;1.52;;;17.60;63.00;;;;;;5149842;27;45390;-75
2023/10/26 08:29:08;;;;;;;5.63;1.58;;;17.60;63.40;;;;;;5149388;27;46720;-72
2023/10/26 08:31:37;;;;;;;4.65;1.60;;;17.60;63.40;;;;;;5149735;27;45305;-71
2023/10/26 08:34:03;;;;;;;6.90;1.50;;;17.70;63.70;;;;;;5130104;27;45432;-75
2023/10/26 08:36:30;;;;;;;8.13;1.90;;;17.80;63.20;;;;;;5139764;27;45162;-75
2023/10/26 08:38:57;;;;;;;7.57;1.90;;;17.90;63.00;;;;;;5149597;27;47336;-74
2023/10/26 08:41:24;;;;;;;4.65;1.90;;;17.90;62.90;;;;;;5149227;27;45236;-74
2023/10/26 08:43:51;;;;;;;10.57;2.28;;;18.00;62.80;;;;;;5149260;27;45252;-73
2023/10/26 08:46:18;;;;;;;4.47;1.95;;;18.10;63.10;;;;;;5149624;27;45282;-74
2023/10/26 08:48:47;;;;;;;10.45;2.40;;;18.10;63.10;;;;;;5149421;27;45349;-73
2023/10/26 08:51:14;;;;;;;5.03;1.80;;;18.10;62.70;;;;;;5149267;27;45348;-71
2023/10/26 08:53:40;;;;;;;2.70;1.95;;;18.20;62.80;;;;;;5148784;27;45449;-71
2023/10/26 08:56:09;;;;;;;7.28;2.05;;;18.20;62.30;;;;;;5148631;27;45429;-70
2023/10/26 08:58:36;;;;;;;5.55;1.63;;;18.30;62.30;;;;;;5148601;27;46404;-69
2023/10/26 09:01:04;;;;;;;9.80;2.15;;;18.30;62.20;;;;;;5148853;27;45184;-69
2023/10/26 09:03:31;;;;;;;7.90;1.83;;;18.30;62.00;;;;;;5148785;27;45323;-70
2023/10/26 09:05:59;;;;;;;6.50;1.83;;;18.30;61.80;;;;;;5148986;27;45491;-70
2023/10/26 09:08:28;;;;;;;5.22;2.17;;;18.40;61.80;;;;;;5146444;27;46971;-69
2023/10/26 09:10:55;;;;;;;7.15;1.75;;;18.40;61.80;;;;;;5127934;27;45199;-69
2023/10/26 09:13:26;;;;;;;2.53;1.73;;;18.40;61.60;;;;;;5127823;27;45511;-70
2023/10/26 09:15:54;;;;;;;9.18;2.20;;;18.40;61.70;;;;;;5127765;27;45241;-70
2023/10/26 09:18:21;;;;;;;3.15;1.70;;;18.40;61.70;;;;;;5127723;27;45218;-70
2023/10/26 09:21:03;;;;;;;2.75;1.80;;;18.40;61.80;;;;;;5127660;27;45366;-69
2023/10/26 09:23:30;;;;;;;2.78;1.73;;;18.40;61.90;;;;;;5128024;27;45191;-69
2023/10/26 09:25:57;;;;;;;3.70;1.90;;;18.40;61.80;;;;;;5127211;27;45719;-69
2023/10/26 09:28:24;;;;;;;6.05;2.08;;;18.40;61.80;;;;;;5127762;27;45347;-70
2023/10/26 09:30:51;;;;;;;3.15;2.10;;;18.40;61.90;;;;;;5128684;27;45367;-69
2023/10/26 09:33:24;;;;;;;7.18;2.50;;;18.40;61.90;;;;;;5131437;27;45280;-70
2023/10/26 09:35:52;;;;;;;4.05;1.92;;;18.40;62.00;;;;;;5128433;27;45343;-69
2023/10/26 09:38:34;;;;;;;5.15;1.95;;;18.40;61.90;;;;;;5131113;27;45922;-69
2023/10/26 09:41:02;;;;;;;8.02;1.88;;;18.40;61.90;;;;;;5128691;27;45177;-70
2023/10/26 09:43:28;;;;;;;6.75;1.92;;;18.40;62.00;;;;;;5131527;27;45192;-69
2023/10/26 09:45:55;;;;;;;2.78;1.75;;;18.40;62.00;;;;;;5131009;27;45238;-69
2023/10/26 09:48:22;;;;;;;4.05;2.10;;;18.30;61.80;;;;;;5130873;27;46358;-70
2023/10/26 09:50:49;;;;;;;6.70;2.00;;;18.40;61.90;;;;;;5130888;27;45509;-70
2023/10/26 09:53:18;;;;;;;5.90;1.45;;;18.40;62.00;;;;;;5131294;27;45407;-70
2023/10/26 09:55:46;;;;;;;3.20;1.83;;;18.40;62.00;;;;;;5130380;27;45230;-70
2023/10/26 09:58:13;;;;;;;1.63;1.40;;;18.40;62.10;;;;;;5130029;27;45283;-70
2023/10/26 10:00:40;;;;;;;2.65;1.42;;;18.40;62.10;;;;;;5130792;27;45356;-70
2023/10/26 10:03:10;;;;;;;5.93;1.67;;;18.40;61.90;;;;;;5130889;27;45201;-70
2023/10/26 10:05:37;;;;;;;3.55;1.55;;;18.40;62.00;;;;;;5130782;27;45490;-70
2023/10/26 10:08:04;;;;;;;3.08;1.40;;;18.40;61.90;;;;;;5130384;27;46564;-70
2023/10/26 10:10:31;;;;;;;6.10;1.83;;;18.40;61.80;;;;;;5130682;27;45317;-70
2023/10/26 10:12:59;;;;;;;4.85;1.77;;;18.40;61.90;;;;;;5130632;27;45157;-70
2023/10/26 10:15:38;;;;;;;2.58;1.70;;;18.40;62.00;;;;;;5130811;27;45246;-70
2023/10/26 10:18:04;;;;;;;2.85;1.50;;;18.40;61.90;;;;;;5130352;27;46632;-70
2023/10/26 10:20:32;;;;;;;7.22;2.00;;;18.40;61.90;;;;;;5130920;27;45209;-70
2023/10/26 10:23:00;;;;;;;3.20;1.83;;;18.40;61.90;;;;;;5130459;27;45298;-70
2023/10/26 10:25:56;;;;;;;3.67;1.63;;;18.50;61.80;;;;;;5130645;27;45427;-70
2023/10/26 10:28:24;;;;;;;6.95;2.10;;;18.50;61.80;;;;;;5130337;27;47066;-70
2023/10/26 10:30:55;;;;;;;5.38;1.75;;;18.50;61.90;;;;;;5130289;27;45338;-70
2023/10/26 10:33:22;;;;;;;3.45;1.65;;;18.50;61.90;;;;;;5130541;27;45513;-70
2023/10/26 10:35:52;;;;;;;2.92;1.50;;;18.50;61.70;;;;;;5124904;27;45529;-70
2023/10/26 10:38:20;;;;;;;2.78;1.67;;;18.50;61.70;;;;;;5128002;27;45299;-70
2023/10/26 10:41:16;;;;;;;2.67;1.63;;;18.60;61.70;;;;;;5129839;27;45346;-70
2023/10/26 10:43:44;;;;;;;2.17;1.50;;;18.60;61.70;;;;;;5131386;27;45433;-70
2023/10/26 10:46:12;;;;;;;2.92;1.98;;;18.60;61.60;;;;;;5130010;27;45446;-70
2023/10/26 10:49:04;;;;;;;2.47;1.70;;;18.60;61.50;;;;;;5129876;27;46398;-70
2023/10/26 10:51:32;;;;;;;3.47;1.42;;;18.70;61.50;;;;;;5122133;27;45335;-70
2023/10/26 10:53:59;;;;;;;2.72;1.70;;;18.70;61.50;;;;;;5129943;27;45247;-70
2023/10/26 10:56:28;;;;;;;3.25;1.98;;;18.70;61.40;;;;;;5130450;27;45234;-70
2023/10/26 10:58:57;;;;;;;4.03;1.55;;;18.70;61.50;;;;;;5129580;27;46510;-70
2023/10/26 11:01:23;;;;;;;3.83;2.00;;;18.70;61.60;;;;;;5129828;27;45349;-70
2023/10/26 11:03:51;;;;;;;5.55;2.08;;;18.70;61.60;;;;;;5129921;27;45208;-70
2023/10/26 11:06:18;;;;;;;4.10;1.90;;;18.80;61.50;;;;;;5130313;27;45415;-70
2023/10/26 11:08:45;;;;;;;1.98;1.67;;;18.90;61.10;;;;;;5129510;27;46870;-70
2023/10/26 11:11:26;;;;;;;4.80;1.80;;;18.90;61.00;;;;;;5130056;27;45321;-70
2023/10/26 11:14:08;;;;;;;2.95;1.77;;;19.00;61.00;;;;;;5129803;27;45254;-70
2023/10/26 11:16:35;;;;;;;2.25;1.50;;;19.00;60.90;;;;;;5130234;27;45460;-70
2023/10/26 11:19:02;;;;;;;2.88;1.77;;;19.00;60.70;;;;;;5129649;27;47235;-70
2023/10/26 11:21:29;;;;;;;3.80;1.85;;;19.10;60.60;;;;;;5126756;27;45304;-70
2023/10/26 11:23:56;;;;;;;2.45;1.40;;;19.10;60.60;;;;;;5129615;27;45340;-70
2023/10/26 11:26:23;;;;;;;4.40;1.50;;;19.10;60.60;;;;;;5129756;27;45419;-69
2023/10/26 11:28:50;;;;;;;5.18;1.75;;;19.10;60.70;;;;;;5129547;27;45460;-70
2023/10/26 11:31:33;;;;;;;1.42;1.33;;;19.20;60.60;;;;;;5129789;27;45335;-70
2023/10/26 11:34:04;;;;;;;2.28;1.30;;;19.20;60.60;;;;;;5128759;27;45408;-69
2023/10/26 11:36:31;;;;;;;3.75;1.73;;;19.20;60.50;;;;;;5140611;27;45303;-69
2023/10/26 11:38:58;;;;;;;4.13;1.77;;;19.30;60.70;;;;;;5149879;27;45361;-70
2023/10/26 11:41:27;;;;;;;3.28;1.52;;;19.30;60.80;;;;;;5150050;27;45378;-69
2023/10/26 11:43:54;;;;;;;3.28;1.80;;;19.30;60.90;;;;;;5150196;27;45337;-69
2023/10/26 11:46:33;;;;;;;2.78;1.60;;;19.20;61.80;;;;;;5136486;27;45441;-69
2023/10/26 11:49:00;;;;;;;8.07;1.92;;;19.20;61.20;;;;;;5129242;27;47300;-70
2023/10/26 11:51:29;;;;;;;2.58;1.65;;;19.20;61.60;;;;;;5112162;27;45475;-69
2023/10/26 11:53:56;;;;;;;2.45;2.10;;;19.20;61.80;;;;;;5113308;27;45305;-71
2023/10/26 11:56:22;;;;;;;5.95;2.00;;;19.20;61.90;;;;;;5111088;27;45272;-71
2023/10/26 11:58:49;;;;;;;5.13;2.03;;;19.30;62.10;;;;;;5131769;27;46770;-71
2023/10/26 12:01:16;;;;;;;5.05;2.33;;;19.30;63.40;;;;;;5128785;27;45209;-70
2023/10/26 12:03:47;;;;;;;3.58;1.98;;;19.30;62.70;;;;;;5129483;27;45402;-71
2023/10/26 12:06:14;;;;;;;5.60;2.40;;;19.40;63.10;;;;;;5129221;27;45396;-71
2023/10/26 12:08:41;;;;;;;2.15;1.60;;;19.40;63.00;;;;;;5128769;27;46722;-70
2023/10/26 12:11:08;;;;;;;3.75;2.05;;;19.30;63.10;;;;;;5108534;27;45694;-71
2023/10/26 12:13:36;;;;;;;4.57;2.05;;;19.30;63.20;;;;;;5125181;27;45383;-70
2023/10/26 12:16:03;;;;;;;4.45;1.80;;;19.30;63.10;;;;;;5127985;27;45401;-70
2023/10/26 12:18:30;;;;;;;3.35;1.63;;;19.30;63.40;;;;;;5128342;27;45416;-70
2023/10/26 12:20:58;;;;;;;4.82;1.92;;;19.30;63.60;;;;;;5129110;27;45188;-70
2023/10/26 12:23:25;;;;;;;4.88;1.70;;;19.30;64.10;;;;;;5128401;27;45428;-71
2023/10/26 12:25:51;;;;;;;4.55;1.70;;;19.30;64.00;;;;;;5126054;27;45352;-70
2023/10/26 12:28:18;;;;;;;5.57;1.77;;;19.30;64.70;;;;;;5108012;27;45800;-70
2023/10/26 12:30:46;;;;;;;2.60;1.80;;;19.30;64.00;;;;;;5125031;27;45264;-71
2023/10/26 12:33:13;;;;;;;5.20;1.80;;;19.30;64.10;;;;;;5128075;27;45289;-71
2023/10/26 12:35:40;;;;;;;4.93;1.55;;;19.30;64.10;;;;;;5126071;27;45367;-70
2023/10/26 12:38:08;;;;;;;3.63;1.63;;;19.20;64.10;;;;;;5127751;27;47661;-71
2023/10/26 12:40:35;;;;;;;5.63;2.22;;;19.20;64.10;;;;;;5127169;27;45366;-72
2023/10/26 12:43:03;;;;;;;7.15;1.77;;;19.20;64.20;;;;;;5128384;27;45358;-71
2023/10/26 12:45:30;;;;;;;3.28;2.00;;;19.20;64.30;;;;;;5128362;27;45415;-70
2023/10/26 12:47:57;;;;;;;6.95;2.08;;;19.20;64.30;;;;;;5125483;27;46389;-72